sensor_id;sensor_type;location;lat;lon;timestamp;P1;durP1;ratioP1;P2;durP2;ratioP2
57101;SDS011;42982;54.558;18.508;2023-09-19T00:01:02;16.38;;;12.70;;
57101;SDS011;42982;54.558;18.508;2023-09-19T00:02:08;18.55;;;12.57;;
57101;SDS011;42982;54.558;18.508;2023-09-19T00:03:10;17.65;;;12.68;;
57101;SDS011;42982;54.558;18.508;2023-09-19T00:04:12;18.48;;;12.75;;
57101;SDS011;42982;54.558;18.508;2023-09-19T00:05:19;18.38;;;11.82;;
57101;SDS011;42982;54.558;18.508;2023-09-19T00:06:25;17.75;;;12.60;;
57101;SDS011;42982;54.558;18.508;2023-09-19T00:07:31;18.48;;;12.52;;
57101;SDS011;42982;54.558;18.508;2023-09-19T00:08:36;16.60;;;12.88;;
57101;SDS011;42982;54.558;18.508;2023-09-19T00:09:38;18.50;;;12.60;;
57101;SDS011;42982;54.558;18.508;2023-09-19T00:10:41;15.90;;;12.52;;
57101;SDS011;42982;54.558;18.508;2023-09-19T00:11:46;18.17;;;12.93;;
57101;SDS011;42982;54.558;18.508;2023-09-19T00:12:53;18.13;;;12.55;;
57101;SDS011;42982;54.558;18.508;2023-09-19T00:14:01;18.70;;;12.93;;
57101;SDS011;42982;54.558;18.508;2023-09-19T00:15:05;16.00;;;12.77;;
57101;SDS011;42982;54.558;18.508;2023-09-19T00:16:11;20.50;;;12.50;;
57101;SDS011;42982;54.558;18.508;2023-09-19T00:17:16;16.58;;;12.65;;
57101;SDS011;42982;54.558;18.508;2023-09-19T00:18:18;16.35;;;12.70;;
57101;SDS011;42982;54.558;18.508;2023-09-19T00:19:24;19.48;;;13.25;;
57101;SDS011;42982;54.558;18.508;2023-09-19T00:20:26;16.38;;;12.40;;
57101;SDS011;42982;54.558;18.508;2023-09-19T00:21:31;19.33;;;13.05;;
57101;SDS011;42982;54.558;18.508;2023-09-19T00:22:33;18.38;;;12.90;;
57101;SDS011;42982;54.558;18.508;2023-09-19T00:23:35;21.90;;;13.25;;
57101;SDS011;42982;54.558;18.508;2023-09-19T00:24:41;16.88;;;12.65;;
57101;SDS011;42982;54.558;18.508;2023-09-19T00:25:48;19.40;;;12.52;;
57101;SDS011;42982;54.558;18.508;2023-09-19T00:26:53;16.15;;;12.25;;
57101;SDS011;42982;54.558;18.508;2023-09-19T00:27:56;18.65;;;11.70;;
57101;SDS011;42982;54.558;18.508;2023-09-19T00:28:58;17.65;;;12.70;;
57101;SDS011;42982;54.558;18.508;2023-09-19T00:30:06;19.35;;;12.38;;
57101;SDS011;42982;54.558;18.508;2023-09-19T00:31:14;20.48;;;12.38;;
57101;SDS011;42982;54.558;18.508;2023-09-19T00:32:16;17.00;;;12.07;;
57101;SDS011;42982;54.558;18.508;2023-09-19T00:33:19;16.90;;;12.45;;
57101;SDS011;42982;54.558;18.508;2023-09-19T00:34:22;17.48;;;11.98;;
57101;SDS011;42982;54.558;18.508;2023-09-19T00:35:24;20.98;;;12.82;;
57101;SDS011;42982;54.558;18.508;2023-09-19T00:36:26;18.40;;;12.95;;
57101;SDS011;42982;54.558;18.508;2023-09-19T00:37:29;17.38;;;12.45;;
57101;SDS011;42982;54.558;18.508;2023-09-19T00:38:32;17.50;;;12.32;;
57101;SDS011;42982;54.558;18.508;2023-09-19T00:39:34;17.75;;;12.65;;
57101;SDS011;42982;54.558;18.508;2023-09-19T00:40:36;17.30;;;12.25;;
57101;SDS011;42982;54.558;18.508;2023-09-19T00:41:38;18.77;;;12.65;;
57101;SDS011;42982;54.558;18.508;2023-09-19T00:42:41;20.38;;;12.88;;
57101;SDS011;42982;54.558;18.508;2023-09-19T00:43:43;20.65;;;12.77;;
57101;SDS011;42982;54.558;18.508;2023-09-19T00:44:47;17.10;;;12.63;;
57101;SDS011;42982;54.558;18.508;2023-09-19T00:45:52;17.88;;;12.80;;
57101;SDS011;42982;54.558;18.508;2023-09-19T00:46:59;18.40;;;12.57;;
57101;SDS011;42982;54.558;18.508;2023-09-19T00:48:02;19.70;;;12.05;;
57101;SDS011;42982;54.558;18.508;2023-09-19T00:49:07;21.65;;;13.27;;
57101;SDS011;42982;54.558;18.508;2023-09-19T00:50:10;16.80;;;11.77;;
57101;SDS011;42982;54.558;18.508;2023-09-19T00:51:15;17.60;;;11.95;;
57101;SDS011;42982;54.558;18.508;2023-09-19T00:52:25;15.90;;;12.48;;
57101;SDS011;42982;54.558;18.508;2023-09-19T00:53:30;18.20;;;12.90;;
57101;SDS011;42982;54.558;18.508;2023-09-19T00:54:34;18.88;;;12.73;;
57101;SDS011;42982;54.558;18.508;2023-09-19T00:55:36;17.42;;;12.70;;
57101;SDS011;42982;54.558;18.508;2023-09-19T00:56:41;17.98;;;12.90;;
57101;SDS011;42982;54.558;18.508;2023-09-19T00:57:43;16.75;;;12.52;;
57101;SDS011;42982;54.558;18.508;2023-09-19T00:58:47;18.60;;;12.60;;
57101;SDS011;42982;54.558;18.508;2023-09-19T00:59:50;18.67;;;12.57;;
57101;SDS011;42982;54.558;18.508;2023-09-19T01:00:58;19.25;;;11.93;;
57101;SDS011;42982;54.558;18.508;2023-09-19T01:02:02;16.48;;;12.20;;
57101;SDS011;42982;54.558;18.508;2023-09-19T01:03:07;16.00;;;12.35;;
57101;SDS011;42982;54.558;18.508;2023-09-19T01:04:11;17.13;;;12.20;;
57101;SDS011;42982;54.558;18.508;2023-09-19T01:05:14;16.35;;;12.05;;
57101;SDS011;42982;54.558;18.508;2023-09-19T01:06:22;15.90;;;12.52;;
57101;SDS011;42982;54.558;18.508;2023-09-19T01:07:24;15.93;;;12.50;;
57101;SDS011;42982;54.558;18.508;2023-09-19T01:08:26;14.73;;;11.52;;
57101;SDS011;42982;54.558;18.508;2023-09-19T01:09:30;18.98;;;11.65;;
57101;SDS011;42982;54.558;18.508;2023-09-19T01:10:31;17.35;;;12.85;;
57101;SDS011;42982;54.558;18.508;2023-09-19T01:11:40;18.58;;;12.20;;
57101;SDS011;42982;54.558;18.508;2023-09-19T01:15:41;14.20;;;11.18;;
57101;SDS011;42982;54.558;18.508;2023-09-19T01:22:00;17.60;;;11.93;;
57101;SDS011;42982;54.558;18.508;2023-09-19T01:23:28;17.45;;;11.38;;
57101;SDS011;42982;54.558;18.508;2023-09-19T01:29:12;17.83;;;12.52;;
57101;SDS011;42982;54.558;18.508;2023-09-19T01:30:20;15.50;;;11.75;;
57101;SDS011;42982;54.558;18.508;2023-09-19T01:31:28;15.95;;;11.77;;
57101;SDS011;42982;54.558;18.508;2023-09-19T01:32:36;15.15;;;11.70;;
57101;SDS011;42982;54.558;18.508;2023-09-19T01:33:53;17.73;;;12.07;;
57101;SDS011;42982;54.558;18.508;2023-09-19T01:35:01;16.25;;;11.98;;
57101;SDS011;42982;54.558;18.508;2023-09-19T01:36:16;18.50;;;12.32;;
57101;SDS011;42982;54.558;18.508;2023-09-19T01:37:18;16.80;;;11.95;;
57101;SDS011;42982;54.558;18.508;2023-09-19T01:38:29;14.88;;;11.88;;
57101;SDS011;42982;54.558;18.508;2023-09-19T01:39:33;17.83;;;11.77;;
57101;SDS011;42982;54.558;18.508;2023-09-19T01:40:48;16.88;;;11.88;;
57101;SDS011;42982;54.558;18.508;2023-09-19T01:43:27;16.55;;;11.15;;
57101;SDS011;42982;54.558;18.508;2023-09-19T01:46:47;16.77;;;11.07;;
57101;SDS011;42982;54.558;18.508;2023-09-19T01:47:51;14.88;;;11.43;;
57101;SDS011;42982;54.558;18.508;2023-09-19T01:51:34;14.68;;;10.77;;
57101;SDS011;42982;54.558;18.508;2023-09-19T01:54:40;15.73;;;10.73;;
57101;SDS011;42982;54.558;18.508;2023-09-19T01:55:48;14.07;;;10.23;;
57101;SDS011;42982;54.558;18.508;2023-09-19T01:58:07;15.88;;;9.75;;
57101;SDS011;42982;54.558;18.508;2023-09-19T01:59:21;13.60;;;9.27;;
57101;SDS011;42982;54.558;18.508;2023-09-19T02:00:29;11.43;;;8.60;;
57101;SDS011;42982;54.558;18.508;2023-09-19T02:01:36;13.60;;;8.65;;
57101;SDS011;42982;54.558;18.508;2023-09-19T02:02:40;12.73;;;9.07;;
57101;SDS011;42982;54.558;18.508;2023-09-19T02:03:46;12.23;;;8.80;;
57101;SDS011;42982;54.558;18.508;2023-09-19T02:04:49;12.85;;;9.43;;
57101;SDS011;42982;54.558;18.508;2023-09-19T02:05:51;13.32;;;8.80;;
57101;SDS011;42982;54.558;18.508;2023-09-19T02:06:54;12.55;;;8.98;;
57101;SDS011;42982;54.558;18.508;2023-09-19T02:07:59;11.65;;;8.55;;
57101;SDS011;42982;54.558;18.508;2023-09-19T02:09:02;14.40;;;9.05;;
57101;SDS011;42982;54.558;18.508;2023-09-19T02:10:05;14.00;;;8.25;;
57101;SDS011;42982;54.558;18.508;2023-09-19T02:11:11;13.23;;;8.60;;
57101;SDS011;42982;54.558;18.508;2023-09-19T02:12:17;12.57;;;8.05;;
57101;SDS011;42982;54.558;18.508;2023-09-19T02:13:18;11.77;;;8.10;;
57101;SDS011;42982;54.558;18.508;2023-09-19T02:14:21;11.73;;;8.57;;
57101;SDS011;42982;54.558;18.508;2023-09-19T02:15:23;13.70;;;8.70;;
57101;SDS011;42982;54.558;18.508;2023-09-19T02:16:26;12.52;;;8.13;;
57101;SDS011;42982;54.558;18.508;2023-09-19T02:17:29;12.43;;;8.63;;
57101;SDS011;42982;54.558;18.508;2023-09-19T02:18:31;13.93;;;8.25;;
57101;SDS011;42982;54.558;18.508;2023-09-19T02:19:35;13.90;;;8.60;;
57101;SDS011;42982;54.558;18.508;2023-09-19T02:20:39;14.90;;;8.23;;
57101;SDS011;42982;54.558;18.508;2023-09-19T02:21:44;12.02;;;8.18;;
57101;SDS011;42982;54.558;18.508;2023-09-19T02:22:46;12.38;;;8.07;;
57101;SDS011;42982;54.558;18.508;2023-09-19T02:23:50;14.82;;;8.30;;
57101;SDS011;42982;54.558;18.508;2023-09-19T02:24:52;12.05;;;8.07;;
57101;SDS011;42982;54.558;18.508;2023-09-19T02:25:54;12.57;;;7.57;;
57101;SDS011;42982;54.558;18.508;2023-09-19T02:27:00;12.77;;;8.18;;
57101;SDS011;42982;54.558;18.508;2023-09-19T02:28:05;11.27;;;7.85;;
57101;SDS011;42982;54.558;18.508;2023-09-19T02:29:09;12.07;;;7.53;;
57101;SDS011;42982;54.558;18.508;2023-09-19T02:30:13;11.38;;;7.93;;
57101;SDS011;42982;54.558;18.508;2023-09-19T02:31:18;9.77;;;7.05;;
57101;SDS011;42982;54.558;18.508;2023-09-19T02:32:23;12.07;;;6.93;;
57101;SDS011;42982;54.558;18.508;2023-09-19T02:33:26;11.02;;;6.20;;
57101;SDS011;42982;54.558;18.508;2023-09-19T02:34:29;11.30;;;7.20;;
57101;SDS011;42982;54.558;18.508;2023-09-19T02:35:30;8.65;;;6.90;;
57101;SDS011;42982;54.558;18.508;2023-09-19T02:36:36;10.20;;;6.88;;
57101;SDS011;42982;54.558;18.508;2023-09-19T02:37:37;13.00;;;6.72;;
57101;SDS011;42982;54.558;18.508;2023-09-19T02:38:39;11.77;;;6.80;;
57101;SDS011;42982;54.558;18.508;2023-09-19T02:39:41;10.75;;;6.47;;
57101;SDS011;42982;54.558;18.508;2023-09-19T02:40:43;8.35;;;6.38;;
57101;SDS011;42982;54.558;18.508;2023-09-19T02:41:44;9.27;;;6.20;;
57101;SDS011;42982;54.558;18.508;2023-09-19T02:42:49;9.18;;;5.78;;
57101;SDS011;42982;54.558;18.508;2023-09-19T02:43:58;12.95;;;6.07;;
57101;SDS011;42982;54.558;18.508;2023-09-19T02:45:01;8.70;;;5.63;;
57101;SDS011;42982;54.558;18.508;2023-09-19T02:46:06;8.32;;;5.40;;
57101;SDS011;42982;54.558;18.508;2023-09-19T02:47:07;7.25;;;5.18;;
57101;SDS011;42982;54.558;18.508;2023-09-19T02:48:09;9.40;;;5.30;;
57101;SDS011;42982;54.558;18.508;2023-09-19T02:49:15;6.63;;;5.40;;
57101;SDS011;42982;54.558;18.508;2023-09-19T02:50:18;5.65;;;4.75;;
57101;SDS011;42982;54.558;18.508;2023-09-19T02:51:20;11.32;;;6.10;;
57101;SDS011;42982;54.558;18.508;2023-09-19T02:52:22;9.15;;;5.22;;
57101;SDS011;42982;54.558;18.508;2023-09-19T02:53:25;10.60;;;5.40;;
57101;SDS011;42982;54.558;18.508;2023-09-19T02:54:26;11.30;;;5.00;;
57101;SDS011;42982;54.558;18.508;2023-09-19T02:55:28;14.63;;;5.40;;
57101;SDS011;42982;54.558;18.508;2023-09-19T02:56:34;7.68;;;5.10;;
57101;SDS011;42982;54.558;18.508;2023-09-19T02:57:36;9.25;;;5.30;;
57101;SDS011;42982;54.558;18.508;2023-09-19T02:58:41;8.98;;;4.40;;
57101;SDS011;42982;54.558;18.508;2023-09-19T02:59:43;10.98;;;4.78;;
57101;SDS011;42982;54.558;18.508;2023-09-19T03:00:51;5.60;;;4.43;;
57101;SDS011;42982;54.558;18.508;2023-09-19T03:01:52;6.13;;;4.00;;
57101;SDS011;42982;54.558;18.508;2023-09-19T03:02:57;10.55;;;4.47;;
57101;SDS011;42982;54.558;18.508;2023-09-19T03:04:03;8.18;;;4.97;;
57101;SDS011;42982;54.558;18.508;2023-09-19T03:05:09;9.80;;;4.53;;
57101;SDS011;42982;54.558;18.508;2023-09-19T03:06:16;5.72;;;4.38;;
57101;SDS011;42982;54.558;18.508;2023-09-19T03:07:23;6.10;;;3.72;;
57101;SDS011;42982;54.558;18.508;2023-09-19T03:08:27;8.13;;;3.97;;
57101;SDS011;42982;54.558;18.508;2023-09-19T03:09:29;7.15;;;3.63;;
57101;SDS011;42982;54.558;18.508;2023-09-19T03:10:31;6.82;;;3.70;;
57101;SDS011;42982;54.558;18.508;2023-09-19T03:11:38;8.35;;;3.45;;
57101;SDS011;42982;54.558;18.508;2023-09-19T03:12:43;6.57;;;3.55;;
57101;SDS011;42982;54.558;18.508;2023-09-19T03:13:50;6.68;;;2.97;;
57101;SDS011;42982;54.558;18.508;2023-09-19T03:14:55;6.43;;;2.90;;
57101;SDS011;42982;54.558;18.508;2023-09-19T03:15:59;5.88;;;3.08;;
57101;SDS011;42982;54.558;18.508;2023-09-19T03:17:02;8.68;;;3.80;;
57101;SDS011;42982;54.558;18.508;2023-09-19T03:18:07;5.97;;;3.13;;
57101;SDS011;42982;54.558;18.508;2023-09-19T03:19:09;7.45;;;3.13;;
57101;SDS011;42982;54.558;18.508;2023-09-19T03:20:12;6.60;;;2.83;;
57101;SDS011;42982;54.558;18.508;2023-09-19T03:21:18;6.07;;;3.00;;
57101;SDS011;42982;54.558;18.508;2023-09-19T03:22:20;8.85;;;3.90;;
57101;SDS011;42982;54.558;18.508;2023-09-19T03:23:22;5.88;;;2.80;;
57101;SDS011;42982;54.558;18.508;2023-09-19T03:24:25;6.72;;;3.35;;
57101;SDS011;42982;54.558;18.508;2023-09-19T03:25:27;5.40;;;2.70;;
57101;SDS011;42982;54.558;18.508;2023-09-19T03:26:29;7.70;;;2.85;;
57101;SDS011;42982;54.558;18.508;2023-09-19T03:27:31;9.63;;;2.65;;
57101;SDS011;42982;54.558;18.508;2023-09-19T03:28:33;5.15;;;2.75;;
57101;SDS011;42982;54.558;18.508;2023-09-19T03:29:35;4.88;;;2.63;;
57101;SDS011;42982;54.558;18.508;2023-09-19T03:30:39;6.43;;;2.42;;
57101;SDS011;42982;54.558;18.508;2023-09-19T03:31:41;7.75;;;2.60;;
57101;SDS011;42982;54.558;18.508;2023-09-19T03:32:44;5.20;;;2.47;;
57101;SDS011;42982;54.558;18.508;2023-09-19T03:33:46;8.73;;;2.35;;
57101;SDS011;42982;54.558;18.508;2023-09-19T03:34:48;5.75;;;2.28;;
57101;SDS011;42982;54.558;18.508;2023-09-19T03:35:53;5.60;;;2.38;;
57101;SDS011;42982;54.558;18.508;2023-09-19T03:36:55;5.13;;;2.33;;
57101;SDS011;42982;54.558;18.508;2023-09-19T03:37:56;5.93;;;2.30;;
57101;SDS011;42982;54.558;18.508;2023-09-19T03:39:02;6.80;;;2.40;;
57101;SDS011;42982;54.558;18.508;2023-09-19T03:40:05;6.85;;;2.47;;
57101;SDS011;42982;54.558;18.508;2023-09-19T03:41:08;5.47;;;2.30;;
57101;SDS011;42982;54.558;18.508;2023-09-19T03:42:15;7.00;;;2.47;;
57101;SDS011;42982;54.558;18.508;2023-09-19T03:43:16;6.10;;;2.42;;
57101;SDS011;42982;54.558;18.508;2023-09-19T03:44:18;6.50;;;2.35;;
57101;SDS011;42982;54.558;18.508;2023-09-19T03:45:20;5.60;;;2.15;;
57101;SDS011;42982;54.558;18.508;2023-09-19T03:46:28;4.22;;;2.10;;
57101;SDS011;42982;54.558;18.508;2023-09-19T03:47:31;4.60;;;2.45;;
57101;SDS011;42982;54.558;18.508;2023-09-19T03:48:35;4.70;;;1.80;;
57101;SDS011;42982;54.558;18.508;2023-09-19T03:49:37;4.80;;;2.13;;
57101;SDS011;42982;54.558;18.508;2023-09-19T03:50:40;3.25;;;1.77;;
57101;SDS011;42982;54.558;18.508;2023-09-19T03:51:44;7.20;;;2.08;;
57101;SDS011;42982;54.558;18.508;2023-09-19T03:52:48;6.22;;;2.15;;
57101;SDS011;42982;54.558;18.508;2023-09-19T03:53:53;5.25;;;2.08;;
57101;SDS011;42982;54.558;18.508;2023-09-19T03:54:55;3.58;;;1.90;;
57101;SDS011;42982;54.558;18.508;2023-09-19T03:55:57;3.85;;;2.00;;
57101;SDS011;42982;54.558;18.508;2023-09-19T03:56:57;3.13;;;1.92;;
57101;SDS011;42982;54.558;18.508;2023-09-19T03:58:04;3.97;;;1.90;;
57101;SDS011;42982;54.558;18.508;2023-09-19T03:59:07;5.38;;;2.30;;
57101;SDS011;42982;54.558;18.508;2023-09-19T04:00:12;6.20;;;2.22;;
57101;SDS011;42982;54.558;18.508;2023-09-19T04:01:18;8.50;;;2.58;;
57101;SDS011;42982;54.558;18.508;2023-09-19T04:02:23;4.85;;;2.00;;
57101;SDS011;42982;54.558;18.508;2023-09-19T04:03:25;4.28;;;2.20;;
57101;SDS011;42982;54.558;18.508;2023-09-19T04:04:35;3.60;;;1.98;;
57101;SDS011;42982;54.558;18.508;2023-09-19T04:05:37;3.70;;;1.88;;
57101;SDS011;42982;54.558;18.508;2023-09-19T04:06:39;4.32;;;2.03;;
57101;SDS011;42982;54.558;18.508;2023-09-19T04:07:43;5.07;;;2.17;;
57101;SDS011;42982;54.558;18.508;2023-09-19T04:08:45;4.28;;;2.00;;
57101;SDS011;42982;54.558;18.508;2023-09-19T04:09:48;4.43;;;2.00;;
57101;SDS011;42982;54.558;18.508;2023-09-19T04:10:52;4.07;;;2.00;;
57101;SDS011;42982;54.558;18.508;2023-09-19T04:11:53;5.10;;;2.00;;
57101;SDS011;42982;54.558;18.508;2023-09-19T04:12:55;5.68;;;1.90;;
57101;SDS011;42982;54.558;18.508;2023-09-19T04:13:57;5.13;;;2.00;;
57101;SDS011;42982;54.558;18.508;2023-09-19T04:14:59;8.40;;;2.10;;
57101;SDS011;42982;54.558;18.508;2023-09-19T04:16:02;4.25;;;1.70;;
57101;SDS011;42982;54.558;18.508;2023-09-19T04:17:04;4.68;;;2.00;;
57101;SDS011;42982;54.558;18.508;2023-09-19T04:18:06;5.85;;;2.08;;
57101;SDS011;42982;54.558;18.508;2023-09-19T04:19:09;4.88;;;1.90;;
57101;SDS011;42982;54.558;18.508;2023-09-19T04:20:10;3.90;;;2.10;;
57101;SDS011;42982;54.558;18.508;2023-09-19T04:21:15;3.70;;;2.20;;
57101;SDS011;42982;54.558;18.508;2023-09-19T04:22:20;6.13;;;2.30;;
57101;SDS011;42982;54.558;18.508;2023-09-19T04:23:21;5.93;;;2.13;;
57101;SDS011;42982;54.558;18.508;2023-09-19T04:24:23;8.57;;;3.70;;
57101;SDS011;42982;54.558;18.508;2023-09-19T04:25:29;3.88;;;2.78;;
57101;SDS011;42982;54.558;18.508;2023-09-19T04:26:36;4.85;;;2.10;;
57101;SDS011;42982;54.558;18.508;2023-09-19T04:27:37;4.20;;;2.30;;
57101;SDS011;42982;54.558;18.508;2023-09-19T04:28:38;7.47;;;2.90;;
57101;SDS011;42982;54.558;18.508;2023-09-19T04:29:40;3.67;;;1.90;;
57101;SDS011;42982;54.558;18.508;2023-09-19T04:30:47;6.53;;;2.15;;
57101;SDS011;42982;54.558;18.508;2023-09-19T04:31:51;4.35;;;2.00;;
57101;SDS011;42982;54.558;18.508;2023-09-19T04:32:54;5.00;;;2.08;;
57101;SDS011;42982;54.558;18.508;2023-09-19T04:33:55;3.28;;;1.83;;
57101;SDS011;42982;54.558;18.508;2023-09-19T04:35:00;5.65;;;1.90;;
57101;SDS011;42982;54.558;18.508;2023-09-19T04:36:07;8.32;;;1.90;;
57101;SDS011;42982;54.558;18.508;2023-09-19T04:37:14;5.15;;;1.90;;
57101;SDS011;42982;54.558;18.508;2023-09-19T04:38:19;7.13;;;2.20;;
57101;SDS011;42982;54.558;18.508;2023-09-19T04:39:23;5.15;;;2.05;;
57101;SDS011;42982;54.558;18.508;2023-09-19T04:40:27;4.22;;;2.15;;
57101;SDS011;42982;54.558;18.508;2023-09-19T04:41:29;5.25;;;2.17;;
57101;SDS011;42982;54.558;18.508;2023-09-19T04:42:33;6.63;;;1.90;;
57101;SDS011;42982;54.558;18.508;2023-09-19T04:43:35;4.30;;;2.00;;
57101;SDS011;42982;54.558;18.508;2023-09-19T04:44:36;7.93;;;2.40;;
57101;SDS011;42982;54.558;18.508;2023-09-19T04:45:40;5.40;;;2.28;;
57101;SDS011;42982;54.558;18.508;2023-09-19T04:46:42;5.90;;;2.35;;
57101;SDS011;42982;54.558;18.508;2023-09-19T04:47:47;8.48;;;2.17;;
57101;SDS011;42982;54.558;18.508;2023-09-19T04:48:55;5.57;;;2.00;;
57101;SDS011;42982;54.558;18.508;2023-09-19T04:49:56;7.35;;;2.13;;
57101;SDS011;42982;54.558;18.508;2023-09-19T04:50:59;5.13;;;1.88;;
57101;SDS011;42982;54.558;18.508;2023-09-19T04:52:01;5.95;;;2.47;;
57101;SDS011;42982;54.558;18.508;2023-09-19T04:53:03;7.97;;;2.40;;
57101;SDS011;42982;54.558;18.508;2023-09-19T04:54:05;3.95;;;2.10;;
57101;SDS011;42982;54.558;18.508;2023-09-19T04:55:09;3.83;;;2.10;;
57101;SDS011;42982;54.558;18.508;2023-09-19T04:56:17;6.07;;;2.20;;
57101;SDS011;42982;54.558;18.508;2023-09-19T04:57:21;5.13;;;2.40;;
57101;SDS011;42982;54.558;18.508;2023-09-19T04:58:26;5.95;;;2.38;;
57101;SDS011;42982;54.558;18.508;2023-09-19T04:59:28;5.20;;;2.25;;
57101;SDS011;42982;54.558;18.508;2023-09-19T05:00:29;4.20;;;2.17;;
57101;SDS011;42982;54.558;18.508;2023-09-19T05:01:36;8.15;;;2.50;;
57101;SDS011;42982;54.558;18.508;2023-09-19T05:02:43;8.70;;;2.72;;
57101;SDS011;42982;54.558;18.508;2023-09-19T05:03:44;5.45;;;2.50;;
57101;SDS011;42982;54.558;18.508;2023-09-19T05:04:52;7.68;;;2.75;;
57101;SDS011;42982;54.558;18.508;2023-09-19T05:05:54;8.25;;;2.92;;
57101;SDS011;42982;54.558;18.508;2023-09-19T05:06:55;7.88;;;3.35;;
57101;SDS011;42982;54.558;18.508;2023-09-19T05:07:59;11.20;;;3.25;;
57101;SDS011;42982;54.558;18.508;2023-09-19T05:09:08;5.18;;;2.85;;
57101;SDS011;42982;54.558;18.508;2023-09-19T05:10:10;6.10;;;2.78;;
57101;SDS011;42982;54.558;18.508;2023-09-19T05:11:17;10.10;;;3.08;;
57101;SDS011;42982;54.558;18.508;2023-09-19T05:12:27;8.35;;;2.80;;
57101;SDS011;42982;54.558;18.508;2023-09-19T05:13:32;9.60;;;3.10;;
57101;SDS011;42982;54.558;18.508;2023-09-19T05:14:36;7.40;;;3.00;;
57101;SDS011;42982;54.558;18.508;2023-09-19T05:15:40;6.78;;;2.22;;
57101;SDS011;42982;54.558;18.508;2023-09-19T05:16:44;8.95;;;2.72;;
57101;SDS011;42982;54.558;18.508;2023-09-19T05:17:52;14.35;;;3.22;;
57101;SDS011;42982;54.558;18.508;2023-09-19T05:18:56;6.72;;;3.03;;
57101;SDS011;42982;54.558;18.508;2023-09-19T05:20:00;5.43;;;3.00;;
57101;SDS011;42982;54.558;18.508;2023-09-19T05:21:18;8.85;;;2.88;;
57101;SDS011;42982;54.558;18.508;2023-09-19T05:22:20;8.38;;;3.15;;
57101;SDS011;42982;54.558;18.508;2023-09-19T05:23:24;8.45;;;2.67;;
57101;SDS011;42982;54.558;18.508;2023-09-19T05:24:30;7.05;;;2.35;;
57101;SDS011;42982;54.558;18.508;2023-09-19T05:25:32;5.60;;;2.50;;
57101;SDS011;42982;54.558;18.508;2023-09-19T05:26:38;6.80;;;2.38;;
57101;SDS011;42982;54.558;18.508;2023-09-19T05:27:46;6.57;;;2.60;;
57101;SDS011;42982;54.558;18.508;2023-09-19T05:28:47;9.45;;;3.13;;
57101;SDS011;42982;54.558;18.508;2023-09-19T05:29:49;6.95;;;3.10;;
57101;SDS011;42982;54.558;18.508;2023-09-19T05:30:53;5.57;;;2.80;;
57101;SDS011;42982;54.558;18.508;2023-09-19T05:31:55;5.25;;;2.70;;
57101;SDS011;42982;54.558;18.508;2023-09-19T05:33:00;6.13;;;2.90;;
57101;SDS011;42982;54.558;18.508;2023-09-19T05:34:04;6.60;;;3.63;;
57101;SDS011;42982;54.558;18.508;2023-09-19T05:35:06;10.45;;;3.63;;
57101;SDS011;42982;54.558;18.508;2023-09-19T05:36:10;9.70;;;3.20;;
57101;SDS011;42982;54.558;18.508;2023-09-19T05:37:13;6.72;;;2.90;;
57101;SDS011;42982;54.558;18.508;2023-09-19T05:38:17;8.77;;;3.10;;
57101;SDS011;42982;54.558;18.508;2023-09-19T05:39:20;6.60;;;3.33;;
57101;SDS011;42982;54.558;18.508;2023-09-19T05:40:23;8.57;;;3.58;;
57101;SDS011;42982;54.558;18.508;2023-09-19T05:41:25;5.97;;;3.20;;
57101;SDS011;42982;54.558;18.508;2023-09-19T05:42:26;6.72;;;3.05;;
57101;SDS011;42982;54.558;18.508;2023-09-19T05:43:28;6.43;;;3.47;;
57101;SDS011;42982;54.558;18.508;2023-09-19T05:44:30;11.75;;;3.60;;
57101;SDS011;42982;54.558;18.508;2023-09-19T05:45:34;5.85;;;3.33;;
57101;SDS011;42982;54.558;18.508;2023-09-19T05:46:40;8.93;;;3.63;;
57101;SDS011;42982;54.558;18.508;2023-09-19T05:47:49;9.10;;;3.10;;
57101;SDS011;42982;54.558;18.508;2023-09-19T05:48:51;9.60;;;3.90;;
57101;SDS011;42982;54.558;18.508;2023-09-19T05:49:59;8.00;;;3.50;;
57101;SDS011;42982;54.558;18.508;2023-09-19T05:51:01;8.57;;;3.55;;
57101;SDS011;42982;54.558;18.508;2023-09-19T05:52:06;6.20;;;3.03;;
57101;SDS011;42982;54.558;18.508;2023-09-19T05:53:08;8.73;;;4.40;;
57101;SDS011;42982;54.558;18.508;2023-09-19T05:54:13;8.43;;;3.72;;
57101;SDS011;42982;54.558;18.508;2023-09-19T05:55:15;10.85;;;3.88;;
57101;SDS011;42982;54.558;18.508;2023-09-19T05:56:22;10.80;;;4.00;;
57101;SDS011;42982;54.558;18.508;2023-09-19T05:57:24;9.82;;;3.78;;
57101;SDS011;42982;54.558;18.508;2023-09-19T05:58:26;7.43;;;3.38;;
57101;SDS011;42982;54.558;18.508;2023-09-19T05:59:30;7.60;;;3.97;;
57101;SDS011;42982;54.558;18.508;2023-09-19T06:00:33;6.43;;;3.38;;
57101;SDS011;42982;54.558;18.508;2023-09-19T06:01:42;6.55;;;3.13;;
57101;SDS011;42982;54.558;18.508;2023-09-19T06:02:44;10.43;;;3.47;;
57101;SDS011;42982;54.558;18.508;2023-09-19T06:03:46;5.90;;;3.65;;
57101;SDS011;42982;54.558;18.508;2023-09-19T06:04:48;12.52;;;4.30;;
57101;SDS011;42982;54.558;18.508;2023-09-19T06:05:53;9.43;;;3.72;;
57101;SDS011;42982;54.558;18.508;2023-09-19T06:07:00;12.23;;;3.78;;
57101;SDS011;42982;54.558;18.508;2023-09-19T06:08:03;8.10;;;4.00;;
57101;SDS011;42982;54.558;18.508;2023-09-19T06:09:08;5.88;;;3.25;;
57101;SDS011;42982;54.558;18.508;2023-09-19T06:10:12;6.97;;;3.30;;
57101;SDS011;42982;54.558;18.508;2023-09-19T06:11:15;8.82;;;3.08;;
57101;SDS011;42982;54.558;18.508;2023-09-19T06:12:17;7.40;;;3.88;;
57101;SDS011;42982;54.558;18.508;2023-09-19T06:13:19;7.30;;;3.03;;
57101;SDS011;42982;54.558;18.508;2023-09-19T06:14:21;7.50;;;3.25;;
57101;SDS011;42982;54.558;18.508;2023-09-19T06:15:28;5.15;;;2.90;;
57101;SDS011;42982;54.558;18.508;2023-09-19T06:16:33;6.95;;;3.30;;
57101;SDS011;42982;54.558;18.508;2023-09-19T06:17:35;8.38;;;3.13;;
57101;SDS011;42982;54.558;18.508;2023-09-19T06:18:38;7.97;;;4.45;;
57101;SDS011;42982;54.558;18.508;2023-09-19T06:19:44;6.38;;;3.55;;
57101;SDS011;42982;54.558;18.508;2023-09-19T06:20:51;8.73;;;3.13;;
57101;SDS011;42982;54.558;18.508;2023-09-19T06:21:56;6.50;;;3.20;;
57101;SDS011;42982;54.558;18.508;2023-09-19T06:23:00;4.93;;;2.83;;
57101;SDS011;42982;54.558;18.508;2023-09-19T06:24:04;8.75;;;3.38;;
57101;SDS011;42982;54.558;18.508;2023-09-19T06:25:08;6.05;;;3.10;;
57101;SDS011;42982;54.558;18.508;2023-09-19T06:26:13;9.35;;;3.22;;
57101;SDS011;42982;54.558;18.508;2023-09-19T06:27:18;9.18;;;2.75;;
57101;SDS011;42982;54.558;18.508;2023-09-19T06:28:19;7.47;;;3.25;;
57101;SDS011;42982;54.558;18.508;2023-09-19T06:29:26;6.65;;;2.90;;
57101;SDS011;42982;54.558;18.508;2023-09-19T06:30:28;6.45;;;3.25;;
57101;SDS011;42982;54.558;18.508;2023-09-19T06:31:31;6.47;;;2.67;;
57101;SDS011;42982;54.558;18.508;2023-09-19T06:32:35;7.97;;;3.55;;
57101;SDS011;42982;54.558;18.508;2023-09-19T06:33:39;7.13;;;3.65;;
57101;SDS011;42982;54.558;18.508;2023-09-19T06:34:41;5.57;;;3.00;;
57101;SDS011;42982;54.558;18.508;2023-09-19T06:35:46;6.32;;;3.40;;
57101;SDS011;42982;54.558;18.508;2023-09-19T06:36:55;3.67;;;2.72;;
57101;SDS011;42982;54.558;18.508;2023-09-19T06:38:02;6.20;;;3.13;;
57101;SDS011;42982;54.558;18.508;2023-09-19T06:39:04;6.10;;;2.88;;
57101;SDS011;42982;54.558;18.508;2023-09-19T06:40:09;7.40;;;3.30;;